sensor_id;sensor_type;location;lat;lon;timestamp;P1;durP1;ratioP1;P2;durP2;ratioP2
49824;SDS011;35714;55.708;37.478;2023-07-28T00:02:09;14.45;;;12.25;;
49824;SDS011;35714;55.708;37.478;2023-07-28T00:04:35;18.45;;;12.75;;
49824;SDS011;35714;55.708;37.478;2023-07-28T00:07:02;15.48;;;12.25;;
49824;SDS011;35714;55.708;37.478;2023-07-28T00:09:28;14.75;;;12.82;;
49824;SDS011;35714;55.708;37.478;2023-07-28T00:11:55;14.00;;;12.38;;
49824;SDS011;35714;55.708;37.478;2023-07-28T00:14:25;14.90;;;12.63;;
49824;SDS011;35714;55.708;37.478;2023-07-28T00:16:52;15.25;;;11.27;;
49824;SDS011;35714;55.708;37.478;2023-07-28T00:19:21;15.85;;;11.88;;
49824;SDS011;35714;55.708;37.478;2023-07-28T00:21:47;15.27;;;12.63;;
49824;SDS011;35714;55.708;37.478;2023-07-28T00:24:17;21.80;;;13.38;;
49824;SDS011;35714;55.708;37.478;2023-07-28T00:26:43;16.40;;;13.25;;
49824;SDS011;35714;55.708;37.478;2023-07-28T00:29:11;15.15;;;12.27;;
49824;SDS011;35714;55.708;37.478;2023-07-28T00:31:36;17.17;;;12.98;;
49824;SDS011;35714;55.708;37.478;2023-07-28T00:34:02;14.95;;;12.40;;
49824;SDS011;35714;55.708;37.478;2023-07-28T00:36:30;15.88;;;12.38;;
49824;SDS011;35714;55.708;37.478;2023-07-28T00:38:59;15.73;;;12.73;;
49824;SDS011;35714;55.708;37.478;2023-07-28T00:41:25;19.10;;;13.07;;
49824;SDS011;35714;55.708;37.478;2023-07-28T00:43:51;15.30;;;13.25;;
49824;SDS011;35714;55.708;37.478;2023-07-28T00:46:17;15.68;;;12.45;;
49824;SDS011;35714;55.708;37.478;2023-07-28T00:48:43;16.02;;;13.02;;
49824;SDS011;35714;55.708;37.478;2023-07-28T00:51:10;16.00;;;13.27;;
49824;SDS011;35714;55.708;37.478;2023-07-28T00:53:37;17.00;;;13.48;;
49824;SDS011;35714;55.708;37.478;2023-07-28T00:56:04;16.45;;;12.30;;
49824;SDS011;35714;55.708;37.478;2023-07-28T00:58:31;14.93;;;12.02;;
49824;SDS011;35714;55.708;37.478;2023-07-28T01:00:57;16.23;;;12.55;;
49824;SDS011;35714;55.708;37.478;2023-07-28T01:03:25;14.95;;;12.93;;
49824;SDS011;35714;55.708;37.478;2023-07-28T01:08:46;14.57;;;12.65;;
49824;SDS011;35714;55.708;37.478;2023-07-28T01:11:53;20.30;;;13.88;;
49824;SDS011;35714;55.708;37.478;2023-07-28T01:14:22;16.95;;;13.45;;
49824;SDS011;35714;55.708;37.478;2023-07-28T01:16:48;17.88;;;13.93;;
49824;SDS011;35714;55.708;37.478;2023-07-28T01:19:19;17.27;;;13.98;;
49824;SDS011;35714;55.708;37.478;2023-07-28T01:21:48;17.58;;;13.20;;
49824;SDS011;35714;55.708;37.478;2023-07-28T01:24:29;15.85;;;13.25;;
49824;SDS011;35714;55.708;37.478;2023-07-28T01:27:00;16.45;;;13.80;;
49824;SDS011;35714;55.708;37.478;2023-07-28T01:29:26;14.90;;;13.27;;
49824;SDS011;35714;55.708;37.478;2023-07-28T01:31:52;18.92;;;12.90;;
49824;SDS011;35714;55.708;37.478;2023-07-28T01:34:18;17.25;;;14.70;;
49824;SDS011;35714;55.708;37.478;2023-07-28T01:36:44;17.02;;;13.45;;
49824;SDS011;35714;55.708;37.478;2023-07-28T01:39:09;16.27;;;12.77;;
49824;SDS011;35714;55.708;37.478;2023-07-28T01:41:35;22.83;;;14.05;;
49824;SDS011;35714;55.708;37.478;2023-07-28T01:44:01;16.13;;;13.07;;
49824;SDS011;35714;55.708;37.478;2023-07-28T01:46:27;16.35;;;12.57;;
49824;SDS011;35714;55.708;37.478;2023-07-28T01:48:53;16.52;;;12.88;;
49824;SDS011;35714;55.708;37.478;2023-07-28T01:51:19;16.83;;;13.80;;
49824;SDS011;35714;55.708;37.478;2023-07-28T01:53:45;14.48;;;12.05;;
49824;SDS011;35714;55.708;37.478;2023-07-28T01:56:10;14.48;;;11.95;;
49824;SDS011;35714;55.708;37.478;2023-07-28T01:58:36;14.25;;;12.15;;
49824;SDS011;35714;55.708;37.478;2023-07-28T02:01:02;16.50;;;12.20;;
49824;SDS011;35714;55.708;37.478;2023-07-28T02:03:27;18.08;;;12.20;;
49824;SDS011;35714;55.708;37.478;2023-07-28T02:05:53;16.92;;;12.98;;
49824;SDS011;35714;55.708;37.478;2023-07-28T02:08:20;17.92;;;13.80;;
49824;SDS011;35714;55.708;37.478;2023-07-28T02:10:46;15.32;;;12.45;;
49824;SDS011;35714;55.708;37.478;2023-07-28T02:13:12;17.40;;;13.02;;
49824;SDS011;35714;55.708;37.478;2023-07-28T02:15:38;15.13;;;12.40;;
49824;SDS011;35714;55.708;37.478;2023-07-28T02:18:04;14.40;;;12.07;;
49824;SDS011;35714;55.708;37.478;2023-07-28T02:20:30;16.15;;;12.75;;
49824;SDS011;35714;55.708;37.478;2023-07-28T02:22:56;14.23;;;12.68;;
49824;SDS011;35714;55.708;37.478;2023-07-28T02:25:21;15.32;;;12.27;;
49824;SDS011;35714;55.708;37.478;2023-07-28T02:27:47;15.25;;;11.38;;
49824;SDS011;35714;55.708;37.478;2023-07-28T02:30:14;15.85;;;11.77;;
49824;SDS011;35714;55.708;37.478;2023-07-28T02:32:40;13.98;;;12.20;;
49824;SDS011;35714;55.708;37.478;2023-07-28T02:35:06;14.35;;;11.77;;
49824;SDS011;35714;55.708;37.478;2023-07-28T02:37:32;14.38;;;11.77;;
49824;SDS011;35714;55.708;37.478;2023-07-28T02:39:58;13.75;;;11.80;;
49824;SDS011;35714;55.708;37.478;2023-07-28T02:42:24;14.40;;;11.77;;
49824;SDS011;35714;55.708;37.478;2023-07-28T02:44:51;18.10;;;12.48;;
49824;SDS011;35714;55.708;37.478;2023-07-28T02:47:16;15.65;;;12.18;;
49824;SDS011;35714;55.708;37.478;2023-07-28T02:49:43;16.58;;;11.45;;
49824;SDS011;35714;55.708;37.478;2023-07-28T02:52:08;15.98;;;11.75;;
49824;SDS011;35714;55.708;37.478;2023-07-28T02:54:34;14.00;;;11.82;;
49824;SDS011;35714;55.708;37.478;2023-07-28T02:57:00;12.98;;;11.07;;
49824;SDS011;35714;55.708;37.478;2023-07-28T02:59:26;19.95;;;12.38;;
49824;SDS011;35714;55.708;37.478;2023-07-28T03:01:53;15.25;;;11.93;;
49824;SDS011;35714;55.708;37.478;2023-07-28T03:04:19;15.50;;;11.23;;
49824;SDS011;35714;55.708;37.478;2023-07-28T03:07:05;15.18;;;10.48;;
49824;SDS011;35714;55.708;37.478;2023-07-28T03:09:32;15.27;;;11.93;;
49824;SDS011;35714;55.708;37.478;2023-07-28T03:12:01;13.82;;;11.02;;
49824;SDS011;35714;55.708;37.478;2023-07-28T03:14:27;11.85;;;10.65;;
49824;SDS011;35714;55.708;37.478;2023-07-28T03:16:54;17.90;;;11.38;;
49824;SDS011;35714;55.708;37.478;2023-07-28T03:19:20;18.92;;;11.43;;
49824;SDS011;35714;55.708;37.478;2023-07-28T03:21:46;13.40;;;10.43;;
49824;SDS011;35714;55.708;37.478;2023-07-28T03:24:12;12.20;;;10.60;;
49824;SDS011;35714;55.708;37.478;2023-07-28T03:26:38;14.57;;;10.63;;
49824;SDS011;35714;55.708;37.478;2023-07-28T03:29:04;13.05;;;11.13;;
49824;SDS011;35714;55.708;37.478;2023-07-28T03:31:30;13.80;;;10.80;;
49824;SDS011;35714;55.708;37.478;2023-07-28T03:33:56;13.50;;;9.93;;
49824;SDS011;35714;55.708;37.478;2023-07-28T03:36:25;13.00;;;10.18;;
49824;SDS011;35714;55.708;37.478;2023-07-28T03:38:50;14.35;;;11.25;;
49824;SDS011;35714;55.708;37.478;2023-07-28T03:41:16;15.27;;;11.40;;
49824;SDS011;35714;55.708;37.478;2023-07-28T03:43:42;16.92;;;10.48;;
49824;SDS011;35714;55.708;37.478;2023-07-28T03:46:08;14.70;;;11.15;;
49824;SDS011;35714;55.708;37.478;2023-07-28T03:48:34;13.63;;;10.82;;
49824;SDS011;35714;55.708;37.478;2023-07-28T03:51:00;16.98;;;11.70;;
49824;SDS011;35714;55.708;37.478;2023-07-28T03:53:25;12.48;;;9.32;;
49824;SDS011;35714;55.708;37.478;2023-07-28T03:55:51;15.23;;;11.10;;
49824;SDS011;35714;55.708;37.478;2023-07-28T03:58:17;15.15;;;11.73;;
49824;SDS011;35714;55.708;37.478;2023-07-28T04:00:43;20.85;;;13.35;;
49824;SDS011;35714;55.708;37.478;2023-07-28T04:03:08;20.05;;;12.27;;
49824;SDS011;35714;55.708;37.478;2023-07-28T04:05:36;16.90;;;12.73;;
49824;SDS011;35714;55.708;37.478;2023-07-28T04:08:02;14.65;;;12.40;;
49824;SDS011;35714;55.708;37.478;2023-07-28T04:10:28;15.73;;;13.57;;
49824;SDS011;35714;55.708;37.478;2023-07-28T04:12:53;18.23;;;13.65;;
49824;SDS011;35714;55.708;37.478;2023-07-28T04:15:19;13.90;;;12.15;;
49824;SDS011;35714;55.708;37.478;2023-07-28T04:17:45;18.63;;;15.25;;
49824;SDS011;35714;55.708;37.478;2023-07-28T04:20:11;15.70;;;13.32;;
49824;SDS011;35714;55.708;37.478;2023-07-28T04:22:36;14.57;;;12.75;;
49824;SDS011;35714;55.708;37.478;2023-07-28T04:25:02;18.45;;;13.57;;
49824;SDS011;35714;55.708;37.478;2023-07-28T04:27:29;16.35;;;12.43;;
49824;SDS011;35714;55.708;37.478;2023-07-28T04:29:58;16.42;;;11.80;;
49824;SDS011;35714;55.708;37.478;2023-07-28T04:32:24;19.38;;;14.18;;
49824;SDS011;35714;55.708;37.478;2023-07-28T04:34:57;20.40;;;14.20;;
49824;SDS011;35714;55.708;37.478;2023-07-28T04:37:39;16.00;;;13.10;;
49824;SDS011;35714;55.708;37.478;2023-07-28T04:40:05;17.08;;;14.75;;
49824;SDS011;35714;55.708;37.478;2023-07-28T04:42:35;20.10;;;16.13;;
49824;SDS011;35714;55.708;37.478;2023-07-28T04:45:02;16.25;;;14.50;;
49824;SDS011;35714;55.708;37.478;2023-07-28T04:47:32;16.70;;;14.13;;
49824;SDS011;35714;55.708;37.478;2023-07-28T04:49:58;15.35;;;13.75;;
49824;SDS011;35714;55.708;37.478;2023-07-28T04:52:24;17.15;;;13.82;;
49824;SDS011;35714;55.708;37.478;2023-07-28T04:55:08;19.65;;;14.10;;
49824;SDS011;35714;55.708;37.478;2023-07-28T04:57:34;16.52;;;13.48;;
49824;SDS011;35714;55.708;37.478;2023-07-28T05:00:00;16.88;;;13.63;;
49824;SDS011;35714;55.708;37.478;2023-07-28T05:02:26;19.52;;;14.38;;
49824;SDS011;35714;55.708;37.478;2023-07-28T05:04:51;16.85;;;15.05;;
49824;SDS011;35714;55.708;37.478;2023-07-28T05:07:17;15.68;;;13.65;;
49824;SDS011;35714;55.708;37.478;2023-07-28T05:09:43;16.83;;;14.45;;
49824;SDS011;35714;55.708;37.478;2023-07-28T05:12:10;16.88;;;14.27;;
49824;SDS011;35714;55.708;37.478;2023-07-28T05:14:42;17.65;;;14.02;;
49824;SDS011;35714;55.708;37.478;2023-07-28T05:17:08;16.58;;;13.93;;
49824;SDS011;35714;55.708;37.478;2023-07-28T05:19:41;18.58;;;14.88;;
49824;SDS011;35714;55.708;37.478;2023-07-28T05:22:32;17.67;;;14.15;;
49824;SDS011;35714;55.708;37.478;2023-07-28T05:24:58;17.70;;;15.50;;
49824;SDS011;35714;55.708;37.478;2023-07-28T05:27:30;18.73;;;14.27;;
49824;SDS011;35714;55.708;37.478;2023-07-28T05:29:56;18.92;;;13.85;;
49824;SDS011;35714;55.708;37.478;2023-07-28T05:32:21;15.85;;;13.27;;
49824;SDS011;35714;55.708;37.478;2023-07-28T05:35:07;18.33;;;13.00;;
49824;SDS011;35714;55.708;37.478;2023-07-28T05:37:33;17.17;;;14.75;;
49824;SDS011;35714;55.708;37.478;2023-07-28T05:39:59;16.42;;;13.45;;
49824;SDS011;35714;55.708;37.478;2023-07-28T05:42:25;16.88;;;13.00;;
49824;SDS011;35714;55.708;37.478;2023-07-28T05:44:51;17.88;;;13.70;;
49824;SDS011;35714;55.708;37.478;2023-07-28T05:47:18;15.48;;;12.77;;
49824;SDS011;35714;55.708;37.478;2023-07-28T05:49:44;18.85;;;13.32;;
49824;SDS011;35714;55.708;37.478;2023-07-28T05:52:09;19.30;;;11.88;;
49824;SDS011;35714;55.708;37.478;2023-07-28T05:54:35;18.60;;;12.77;;
49824;SDS011;35714;55.708;37.478;2023-07-28T05:57:01;15.82;;;11.75;;
49824;SDS011;35714;55.708;37.478;2023-07-28T05:59:26;20.55;;;12.82;;
49824;SDS011;35714;55.708;37.478;2023-07-28T06:01:52;17.42;;;13.50;;
49824;SDS011;35714;55.708;37.478;2023-07-28T06:04:33;21.30;;;14.85;;
49824;SDS011;35714;55.708;37.478;2023-07-28T06:07:01;14.98;;;11.90;;
49824;SDS011;35714;55.708;37.478;2023-07-28T06:09:27;18.65;;;14.65;;
49824;SDS011;35714;55.708;37.478;2023-07-28T06:11:53;14.02;;;11.10;;
49824;SDS011;35714;55.708;37.478;2023-07-28T06:14:19;17.60;;;12.65;;
49824;SDS011;35714;55.708;37.478;2023-07-28T06:16:46;17.00;;;10.90;;
49824;SDS011;35714;55.708;37.478;2023-07-28T06:19:11;15.93;;;10.55;;
49824;SDS011;35714;55.708;37.478;2023-07-28T06:21:38;10.38;;;8.43;;
49824;SDS011;35714;55.708;37.478;2023-07-28T06:24:04;12.30;;;8.32;;
49824;SDS011;35714;55.708;37.478;2023-07-28T06:26:31;12.52;;;9.00;;
49824;SDS011;35714;55.708;37.478;2023-07-28T06:28:57;13.32;;;7.70;;
49824;SDS011;35714;55.708;37.478;2023-07-28T06:31:23;10.88;;;7.13;;
49824;SDS011;35714;55.708;37.478;2023-07-28T06:33:49;10.30;;;6.90;;
49824;SDS011;35714;55.708;37.478;2023-07-28T06:36:14;9.75;;;6.68;;
49824;SDS011;35714;55.708;37.478;2023-07-28T06:38:40;11.85;;;7.65;;
49824;SDS011;35714;55.708;37.478;2023-07-28T06:41:08;11.65;;;7.00;;
49824;SDS011;35714;55.708;37.478;2023-07-28T06:43:33;14.40;;;9.13;;
49824;SDS011;35714;55.708;37.478;2023-07-28T06:46:01;12.05;;;8.30;;
49824;SDS011;35714;55.708;37.478;2023-07-28T06:48:27;18.92;;;9.68;;
49824;SDS011;35714;55.708;37.478;2023-07-28T06:50:52;16.27;;;10.68;;
49824;SDS011;35714;55.708;37.478;2023-07-28T06:53:20;21.13;;;11.77;;
49824;SDS011;35714;55.708;37.478;2023-07-28T06:55:46;16.35;;;10.73;;
49824;SDS011;35714;55.708;37.478;2023-07-28T06:58:12;17.08;;;10.10;;
49824;SDS011;35714;55.708;37.478;2023-07-28T07:00:37;15.60;;;10.25;;
49824;SDS011;35714;55.708;37.478;2023-07-28T07:03:03;14.55;;;10.32;;
49824;SDS011;35714;55.708;37.478;2023-07-28T07:05:29;12.45;;;9.48;;
49824;SDS011;35714;55.708;37.478;2023-07-28T07:07:54;14.05;;;10.43;;
49824;SDS011;35714;55.708;37.478;2023-07-28T07:10:20;12.82;;;9.32;;
49824;SDS011;35714;55.708;37.478;2023-07-28T07:12:47;13.80;;;9.30;;
49824;SDS011;35714;55.708;37.478;2023-07-28T07:15:13;19.77;;;10.38;;
49824;SDS011;35714;55.708;37.478;2023-07-28T07:17:39;13.13;;;9.95;;
49824;SDS011;35714;55.708;37.478;2023-07-28T07:20:05;27.25;;;13.27;;
49824;SDS011;35714;55.708;37.478;2023-07-28T07:22:32;15.63;;;12.00;;
49824;SDS011;35714;55.708;37.478;2023-07-28T07:24:57;15.05;;;11.00;;
49824;SDS011;35714;55.708;37.478;2023-07-28T07:27:24;18.30;;;10.98;;
49824;SDS011;35714;55.708;37.478;2023-07-28T07:29:50;15.10;;;11.52;;
49824;SDS011;35714;55.708;37.478;2023-07-28T07:32:17;16.83;;;11.02;;
49824;SDS011;35714;55.708;37.478;2023-07-28T07:34:42;16.52;;;10.95;;
49824;SDS011;35714;55.708;37.478;2023-07-28T07:37:09;16.27;;;11.65;;
49824;SDS011;35714;55.708;37.478;2023-07-28T07:39:34;19.10;;;11.50;;
49824;SDS011;35714;55.708;37.478;2023-07-28T07:42:02;16.15;;;11.15;;
49824;SDS011;35714;55.708;37.478;2023-07-28T07:44:27;17.13;;;11.45;;
49824;SDS011;35714;55.708;37.478;2023-07-28T07:46:53;14.13;;;11.15;;
49824;SDS011;35714;55.708;37.478;2023-07-28T07:49:19;14.93;;;10.07;;
49824;SDS011;35714;55.708;37.478;2023-07-28T07:51:45;16.10;;;9.88;;
49824;SDS011;35714;55.708;37.478;2023-07-28T07:54:11;17.30;;;11.73;;
49824;SDS011;35714;55.708;37.478;2023-07-28T07:56:41;18.45;;;12.27;;
49824;SDS011;35714;55.708;37.478;2023-07-28T07:59:07;16.90;;;12.07;;
49824;SDS011;35714;55.708;37.478;2023-07-28T08:01:33;16.17;;;11.20;;
49824;SDS011;35714;55.708;37.478;2023-07-28T08:03:59;16.15;;;11.32;;
49824;SDS011;35714;55.708;37.478;2023-07-28T08:06:25;16.67;;;10.85;;
49824;SDS011;35714;55.708;37.478;2023-07-28T08:08:51;18.60;;;12.40;;
49824;SDS011;35714;55.708;37.478;2023-07-28T08:11:18;12.93;;;9.88;;
49824;SDS011;35714;55.708;37.478;2023-07-28T08:13:44;14.07;;;8.90;;
49824;SDS011;35714;55.708;37.478;2023-07-28T08:16:10;12.75;;;7.43;;
49824;SDS011;35714;55.708;37.478;2023-07-28T08:18:36;12.63;;;7.13;;
49824;SDS011;35714;55.708;37.478;2023-07-28T08:21:02;10.85;;;6.57;;
49824;SDS011;35714;55.708;37.478;2023-07-28T08:23:28;12.45;;;6.47;;
49824;SDS011;35714;55.708;37.478;2023-07-28T08:25:54;9.23;;;5.60;;
49824;SDS011;35714;55.708;37.478;2023-07-28T08:28:20;8.48;;;4.97;;
49824;SDS011;35714;55.708;37.478;2023-07-28T08:30:53;10.23;;;5.45;;
49824;SDS011;35714;55.708;37.478;2023-07-28T08:33:20;10.98;;;4.10;;
49824;SDS011;35714;55.708;37.478;2023-07-28T08:35:46;7.75;;;4.60;;
49824;SDS011;35714;55.708;37.478;2023-07-28T08:38:11;8.23;;;4.35;;
49824;SDS011;35714;55.708;37.478;2023-07-28T08:40:37;7.60;;;4.18;;
49824;SDS011;35714;55.708;37.478;2023-07-28T08:43:03;8.13;;;4.43;;
49824;SDS011;35714;55.708;37.478;2023-07-28T08:45:28;9.07;;;4.93;;
49824;SDS011;35714;55.708;37.478;2023-07-28T08:47:54;11.55;;;4.63;;
49824;SDS011;35714;55.708;37.478;2023-07-28T08:50:20;8.27;;;4.40;;
49824;SDS011;35714;55.708;37.478;2023-07-28T08:52:46;7.35;;;4.60;;
49824;SDS011;35714;55.708;37.478;2023-07-28T08:55:14;6.10;;;4.32;;
49824;SDS011;35714;55.708;37.478;2023-07-28T08:57:40;6.53;;;4.88;;
49824;SDS011;35714;55.708;37.478;2023-07-28T09:00:09;9.57;;;4.93;;
49824;SDS011;35714;55.708;37.478;2023-07-28T09:02:38;7.75;;;5.40;;
49824;SDS011;35714;55.708;37.478;2023-07-28T09:05:05;7.15;;;5.00;;
49824;SDS011;35714;55.708;37.478;2023-07-28T09:07:35;8.00;;;5.75;;
49824;SDS011;35714;55.708;37.478;2023-07-28T09:10:02;10.52;;;7.35;;
49824;SDS011;35714;55.708;37.478;2023-07-28T09:12:32;10.20;;;5.32;;
49824;SDS011;35714;55.708;37.478;2023-07-28T09:14:58;8.25;;;5.30;;
49824;SDS011;35714;55.708;37.478;2023-07-28T09:17:24;7.20;;;4.63;;
49824;SDS011;35714;55.708;37.478;2023-07-28T09:19:53;8.57;;;4.63;;
49824;SDS011;35714;55.708;37.478;2023-07-28T09:22:21;7.35;;;4.43;;
49824;SDS011;35714;55.708;37.478;2023-07-28T09:24:48;8.13;;;5.22;;
49824;SDS011;35714;55.708;37.478;2023-07-28T09:27:24;7.57;;;4.90;;
49824;SDS011;35714;55.708;37.478;2023-07-28T09:29:52;8.00;;;5.50;;
49824;SDS011;35714;55.708;37.478;2023-07-28T09:32:30;7.20;;;5.10;;
49824;SDS011;35714;55.708;37.478;2023-07-28T09:35:09;8.02;;;5.80;;
49824;SDS011;35714;55.708;37.478;2023-07-28T09:37:36;8.55;;;5.78;;
49824;SDS011;35714;55.708;37.478;2023-07-28T09:40:04;7.88;;;5.47;;
49824;SDS011;35714;55.708;37.478;2023-07-28T09:42:41;11.13;;;7.63;;
49824;SDS011;35714;55.708;37.478;2023-07-28T09:45:08;8.32;;;7.07;;
49824;SDS011;35714;55.708;37.478;2023-07-28T09:47:36;11.70;;;7.13;;
49824;SDS011;35714;55.708;37.478;2023-07-28T09:50:03;8.13;;;6.55;;
49824;SDS011;35714;55.708;37.478;2023-07-28T09:52:39;8.77;;;6.25;;
49824;SDS011;35714;55.708;37.478;2023-07-28T09:55:15;9.70;;;6.63;;
49824;SDS011;35714;55.708;37.478;2023-07-28T09:57:50;10.15;;;7.68;;
49824;SDS011;35714;55.708;37.478;2023-07-28T10:00:17;9.60;;;7.63;;
49824;SDS011;35714;55.708;37.478;2023-07-28T10:02:46;7.63;;;6.60;;
49824;SDS011;35714;55.708;37.478;2023-07-28T10:05:12;9.15;;;7.30;;
49824;SDS011;35714;55.708;37.478;2023-07-28T10:07:44;8.30;;;6.85;;
49824;SDS011;35714;55.708;37.478;2023-07-28T10:10:12;10.43;;;8.30;;
49824;SDS011;35714;55.708;37.478;2023-07-28T10:12:39;10.55;;;8.30;;
49824;SDS011;35714;55.708;37.478;2023-07-28T10:15:07;9.65;;;7.88;;
49824;SDS011;35714;55.708;37.478;2023-07-28T10:17:36;10.32;;;9.07;;
49824;SDS011;35714;55.708;37.478;2023-07-28T10:20:05;10.88;;;9.02;;
49824;SDS011;35714;55.708;37.478;2023-07-28T10:22:43;10.25;;;9.00;;
49824;SDS011;35714;55.708;37.478;2023-07-28T10:25:10;11.88;;;9.85;;
49824;SDS011;35714;55.708;37.478;2023-07-28T10:27:37;11.20;;;9.63;;
49824;SDS011;35714;55.708;37.478;2023-07-28T10:30:07;17.38;;;14.27;;
49824;SDS011;35714;55.708;37.478;2023-07-28T10:32:47;15.95;;;13.05;;
49824;SDS011;35714;55.708;37.478;2023-07-28T10:35:22;13.88;;;11.18;;
49824;SDS011;35714;55.708;37.478;2023-07-28T10:37:50;11.02;;;8.52;;
49824;SDS011;35714;55.708;37.478;2023-07-28T10:40:32;12.25;;;8.98;;
49824;SDS011;35714;55.708;37.478;2023-07-28T10:43:00;9.80;;;8.20;;
49824;SDS011;35714;55.708;37.478;2023-07-28T10:45:28;9.80;;;8.48;;
49824;SDS011;35714;55.708;37.478;2023-07-28T10:47:55;12.13;;;8.75;;
49824;SDS011;35714;55.708;37.478;2023-07-28T10:50:26;11.50;;;8.50;;
49824;SDS011;35714;55.708;37.478;2023-07-28T10:52:53;9.95;;;7.47;;
49824;SDS011;35714;55.708;37.478;2023-07-28T10:55:20;10.05;;;7.63;;
49824;SDS011;35714;55.708;37.478;2023-07-28T10:57:49;10.10;;;7.97;;
49824;SDS011;35714;55.708;37.478;2023-07-28T11:00:17;11.35;;;8.07;;
49824;SDS011;35714;55.708;37.478;2023-07-28T11:02:45;9.15;;;7.25;;
49824;SDS011;35714;55.708;37.478;2023-07-28T11:05:13;12.40;;;7.05;;
49824;SDS011;35714;55.708;37.478;2023-07-28T11:07:43;8.48;;;6.72;;
49824;SDS011;35714;55.708;37.478;2023-07-28T11:10:10;10.25;;;7.65;;
49824;SDS011;35714;55.708;37.478;2023-07-28T11:12:40;9.13;;;7.38;;
49824;SDS011;35714;55.708;37.478;2023-07-28T11:15:10;17.95;;;13.95;;
49824;SDS011;35714;55.708;37.478;2023-07-28T11:17:43;12.48;;;10.25;;
49824;SDS011;35714;55.708;37.478;2023-07-28T11:22:44;9.80;;;8.23;;
49824;SDS011;35714;55.708;37.478;2023-07-28T11:25:12;35.10;;;11.27;;
49824;SDS011;35714;55.708;37.478;2023-07-28T11:27:39;19.60;;;10.10;;
49824;SDS011;35714;55.708;37.478;2023-07-28T11:30:08;16.20;;;12.77;;
49824;SDS011;35714;55.708;37.478;2023-07-28T11:32:37;12.13;;;10.00;;
49824;SDS011;35714;55.708;37.478;2023-07-28T11:35:07;20.08;;;10.90;;
49824;SDS011;35714;55.708;37.478;2023-07-28T11:37:41;13.30;;;9.48;;
49824;SDS011;35714;55.708;37.478;2023-07-28T11:40:08;12.13;;;8.57;;
49824;SDS011;35714;55.708;37.478;2023-07-28T11:42:38;9.90;;;8.25;;
49824;SDS011;35714;55.708;37.478;2023-07-28T11:45:06;14.38;;;8.57;;
49824;SDS011;35714;55.708;37.478;2023-07-28T11:47:33;11.40;;;8.98;;
49824;SDS011;35714;55.708;37.478;2023-07-28T11:49:59;11.93;;;7.88;;
49824;SDS011;35714;55.708;37.478;2023-07-28T11:52:32;12.40;;;9.82;;
49824;SDS011;35714;55.708;37.478;2023-07-28T11:54:59;12.63;;;9.23;;
49824;SDS011;35714;55.708;37.478;2023-07-28T11:57:28;11.25;;;8.15;;
49824;SDS011;35714;55.708;37.478;2023-07-28T11:59:58;11.75;;;8.20;;
49824;SDS011;35714;55.708;37.478;2023-07-28T12:02:28;9.88;;;8.10;;
49824;SDS011;35714;55.708;37.478;2023-07-28T12:04:55;10.55;;;7.60;;
49824;SDS011;35714;55.708;37.478;2023-07-28T12:09:55;8.68;;;7.78;;
49824;SDS011;35714;55.708;37.478;2023-07-28T12:12:25;9.75;;;7.60;;
49824;SDS011;35714;55.708;37.478;2023-07-28T12:14:57;8.85;;;6.63;;
49824;SDS011;35714;55.708;37.478;2023-07-28T12:17:31;7.18;;;5.03;;
49824;SDS011;35714;55.708;37.478;2023-07-28T12:19:59;7.43;;;4.95;;
49824;SDS011;35714;55.708;37.478;2023-07-28T12:22:42;6.57;;;4.72;;
49824;SDS011;35714;55.708;37.478;2023-07-28T12:25:10;6.35;;;4.10;;
49824;SDS011;35714;55.708;37.478;2023-07-28T12:27:37;6.43;;;3.00;;
49824;SDS011;35714;55.708;37.478;2023-07-28T12:30:03;5.43;;;3.60;;
49824;SDS011;35714;55.708;37.478;2023-07-28T12:32:32;4.68;;;3.40;;
49824;SDS011;35714;55.708;37.478;2023-07-28T12:34:57;5.38;;;3.83;;
49824;SDS011;35714;55.708;37.478;2023-07-28T12:37:23;8.32;;;5.13;;
49824;SDS011;35714;55.708;37.478;2023-07-28T12:39:49;6.50;;;4.65;;
49824;SDS011;35714;55.708;37.478;2023-07-28T12:42:15;6.60;;;3.60;;
49824;SDS011;35714;55.708;37.478;2023-07-28T12:44:41;6.28;;;4.63;;
49824;SDS011;35714;55.708;37.478;2023-07-28T12:47:08;5.18;;;3.38;;
49824;SDS011;35714;55.708;37.478;2023-07-28T12:49:34;4.97;;;3.30;;
49824;SDS011;35714;55.708;37.478;2023-07-28T12:52:00;7.90;;;3.83;;
49824;SDS011;35714;55.708;37.478;2023-07-28T12:54:28;6.65;;;3.42;;
49824;SDS011;35714;55.708;37.478;2023-07-28T12:56:54;4.70;;;2.80;;
49824;SDS011;35714;55.708;37.478;2023-07-28T12:59:20;4.40;;;2.65;;
49824;SDS011;35714;55.708;37.478;2023-07-28T13:01:46;8.63;;;2.95;;
49824;SDS011;35714;55.708;37.478;2023-07-28T13:04:12;5.10;;;2.88;;
49824;SDS011;35714;55.708;37.478;2023-07-28T13:06:38;6.63;;;3.13;;
49824;SDS011;35714;55.708;37.478;2023-07-28T13:09:03;6.78;;;3.22;;
49824;SDS011;35714;55.708;37.478;2023-07-28T13:11:30;6.20;;;3.20;;
49824;SDS011;35714;55.708;37.478;2023-07-28T13:13:55;6.43;;;3.10;;
49824;SDS011;35714;55.708;37.478;2023-07-28T13:16:21;6.75;;;3.10;;
49824;SDS011;35714;55.708;37.478;2023-07-28T13:18:47;5.95;;;2.92;;
49824;SDS011;35714;55.708;37.478;2023-07-28T13:21:13;4.97;;;3.00;;
49824;SDS011;35714;55.708;37.478;2023-07-28T13:23:39;7.50;;;3.33;;
49824;SDS011;35714;55.708;37.478;2023-07-28T13:26:05;4.80;;;2.90;;
49824;SDS011;35714;55.708;37.478;2023-07-28T13:28:32;5.95;;;2.75;;
49824;SDS011;35714;55.708;37.478;2023-07-28T13:30:59;6.15;;;3.25;;
49824;SDS011;35714;55.708;37.478;2023-07-28T13:33:24;5.30;;;2.47;;
49824;SDS011;35714;55.708;37.478;2023-07-28T13:35:50;4.80;;;2.45;;
49824;SDS011;35714;55.708;37.478;2023-07-28T13:38:16;3.92;;;1.83;;
49824;SDS011;35714;55.708;37.478;2023-07-28T13:40:41;5.97;;;2.83;;
49824;SDS011;35714;55.708;37.478;2023-07-28T13:43:07;5.07;;;3.05;;
49824;SDS011;35714;55.708;37.478;2023-07-28T13:45:33;5.15;;;3.33;;
49824;SDS011;35714;55.708;37.478;2023-07-28T13:47:58;15.90;;;7.15;;
49824;SDS011;35714;55.708;37.478;2023-07-28T13:50:24;7.68;;;4.35;;
49824;SDS011;35714;55.708;37.478;2023-07-28T13:52:49;9.57;;;5.00;;
49824;SDS011;35714;55.708;37.478;2023-07-28T13:55:15;9.77;;;4.22;;
49824;SDS011;35714;55.708;37.478;2023-07-28T13:57:41;7.78;;;5.03;;
49824;SDS011;35714;55.708;37.478;2023-07-28T14:00:07;11.40;;;5.13;;
49824;SDS011;35714;55.708;37.478;2023-07-28T14:02:35;7.72;;;3.70;;
49824;SDS011;35714;55.708;37.478;2023-07-28T14:05:01;12.55;;;7.85;;
49824;SDS011;35714;55.708;37.478;2023-07-28T14:07:30;16.73;;;9.52;;
49824;SDS011;35714;55.708;37.478;2023-07-28T14:09:55;12.52;;;8.38;;
49824;SDS011;35714;55.708;37.478;2023-07-28T14:12:21;10.18;;;5.68;;
49824;SDS011;35714;55.708;37.478;2023-07-28T14:14:47;5.25;;;2.88;;
49824;SDS011;35714;55.708;37.478;2023-07-28T14:17:12;5.53;;;3.30;;
49824;SDS011;35714;55.708;37.478;2023-07-28T14:19:38;6.53;;;2.88;;
49824;SDS011;35714;55.708;37.478;2023-07-28T14:22:05;5.78;;;2.35;;
49824;SDS011;35714;55.708;37.478;2023-07-28T14:24:31;5.05;;;2.65;;
49824;SDS011;35714;55.708;37.478;2023-07-28T14:26:57;6.90;;;2.28;;
49824;SDS011;35714;55.708;37.478;2023-07-28T14:29:22;5.78;;;2.30;;